Birmingham-Shuttlesworth International Airport
KBHM : now visible

Airfield :











YOU CAN JOIN US ON...

 
LOGIN :

Register | Disclaimer

   EN    FR    IT 

 









Legend :    VFR   Marginal VFR   IFR   Intensive IFR   Very Intensive IFR
Visi :
Ceiling :
>= 8 km
>= 3000ft
5 to 8 km
1000 to 3000 ft
1500m to 5 km
500 to 1000 ft
800 to 1500m
200 to 500 ft
< 800m
< 200 ft
Symbols :   Thunderstorms  Fog  Heavy snow  Heavy precipitations  Wind > 20 kt







- Airport Elevation : 650 ft
- IATA code : BHM


KBHM - Birmingham-Shuttlesworth International

CURRENT METAR :
  • 201253Z VRB03KT 10SM SCT022 OVC027 22/19 A3010 RMK AO2 SLP184 T02170189

EXPIRED METARs :
  • 201153Z 31003KT 10SM BKN025 21/19 A3009 RMK AO2 SLP180 T02060189 10222 20183 51018
  • 201053Z 00000KT 10SM BKN029 OVC042 21/18 A3007 RMK AO2 SLP174 T02060183
  • 201038Z 00000KT 10SM FEW016 BKN027 BKN250 20/18 A3007 RMK AO2 T02000183

TAF KBHM
Valid from the 20 at 12:00 until the 21 at 12:00 UTC


201132Z 2012/2112 24003KT P6SM SCT015 BKN025 OVC050
FM201700 32005KT P6SM SCT025 BKN050
FM210100 12003KT P6SM SCT250
KZTL FIR / North America



MET'MAP, your aeronautical weather chart ! - Copyright ORBIFLY December 2007 - Disclaimer

ORBIFLY MET'MAP TEAM :

Programming & Development : Alexandra Zaïnal
Concept & Development : Baudouin d'Aumeries
Co-Development & Prog : Marc-Olivier Méhu
Technical & hardware support : Manuel Goepfert

Contact : metmap@orbifly.com




SOURCES & CREDITS :

   NOAA       Earth
Advisory